Time;durP1;ratioP1;P1;durP2;ratioP2;P2;SDS_P1;SDS_P2;PMS_P1;PMS_P2;Temp;Humidity;BMP_temperature;BMP_pressure;BME280_temperature;BME280_humidity;BME280_pressure;Samples;Min_cycle;Max_cycle;Signal;HPM_P1;HPM_P2
2021/01/21 00:00:31;;;;;;;8.20;7.37;;;7.40;1.00;;;;;;4987548;28;20199;-66
2021/01/21 00:02:56;;;;;;;8.60;7.30;;;7.30;1.00;;;;;;4989583;28;20283;-66
2021/01/21 00:05:22;;;;;;;9.57;8.57;;;7.20;1.00;;;;;;4982874;28;20193;-66
2021/01/21 00:07:48;;;;;;;10.30;8.50;;;7.10;1.00;;;;;;4988921;28;20290;-65
2021/01/21 00:10:13;;;;;;;10.67;8.63;;;7.00;99.90;;;;;;4985975;28;20189;-66
2021/01/21 00:12:39;;;;;;;10.17;8.83;;;7.00;99.90;;;;;;4992556;28;20563;-66
2021/01/21 00:15:05;;;;;;;11.50;8.83;;;6.90;1.00;;;;;;4973355;28;20193;-67
2021/01/21 00:17:31;;;;;;;9.73;8.30;;;6.90;1.00;;;;;;4989006;28;20539;-67
2021/01/21 00:19:56;;;;;;;11.13;8.90;;;6.80;1.00;;;;;;4988604;28;20444;-67
2021/01/21 00:22:23;;;;;;;11.20;9.63;;;6.60;14.90;;;;;;4987883;28;20291;-67
2021/01/21 00:24:48;;;;;;;11.35;9.30;;;6.60;25.70;;;;;;4988817;28;20181;-67
2021/01/21 00:27:14;;;;;;;10.60;9.33;;;6.50;1.00;;;;;;4988901;28;20184;-67
2021/01/21 00:29:39;;;;;;;14.07;10.60;;;6.50;99.90;;;;;;4978841;28;20195;-66
2021/01/21 00:32:05;;;;;;;13.10;10.60;;;6.50;99.90;;;;;;4987817;28;20248;-67
2021/01/21 00:34:31;;;;;;;12.87;10.97;;;6.40;99.90;;;;;;4988176;28;20666;-66
2021/01/21 00:36:56;;;;;;;11.60;10.40;;;6.30;99.90;;;;;;4988920;28;20666;-66
2021/01/21 00:39:22;;;;;;;14.20;11.13;;;6.30;1.00;;;;;;4988388;28;20192;-66
2021/01/21 00:41:47;;;;;;;13.60;10.83;;;6.30;99.90;;;;;;4988962;28;20245;-66
2021/01/21 00:44:13;;;;;;;13.60;11.00;;;6.20;99.90;;;;;;4988042;28;20226;-67
2021/01/21 00:46:39;;;;;;;14.60;11.50;;;6.20;99.90;;;;;;4987522;28;20190;-66
2021/01/21 00:49:04;;;;;;;12.77;10.60;;;6.20;1.00;;;;;;4987524;28;20376;-66
2021/01/21 00:51:30;;;;;;;13.87;11.13;;;6.20;1.00;;;;;;4987677;28;20596;-66
2021/01/21 00:53:55;;;;;;;14.57;11.63;;;6.10;99.90;;;;;;4988746;28;20212;-67
2021/01/21 00:56:21;;;;;;;15.10;12.50;;;6.10;1.00;;;;;;4987688;28;20244;-67
2021/01/21 00:58:47;;;;;;;13.50;11.60;;;6.10;1.00;;;;;;4988212;28;20188;-67
2021/01/21 01:01:12;;;;;;;12.93;11.63;;;6.00;2.60;;;;;;4992215;28;20188;-67
2021/01/21 01:03:38;;;;;;;14.23;12.63;;;5.90;99.90;;;;;;4992825;28;20202;-67
2021/01/21 01:06:05;;;;;;;14.90;11.43;;;5.90;99.90;;;;;;4993510;28;20190;-67
2021/01/21 01:08:31;;;;;;;14.52;11.88;;;5.90;99.90;;;;;;4988534;28;20929;-67
2021/01/21 01:10:57;;;;;;;18.10;13.18;;;5.80;99.90;;;;;;4991987;28;20287;-65
2021/01/21 01:13:23;;;;;;;16.10;13.00;;;5.80;99.90;;;;;;4991625;28;20639;-65
2021/01/21 01:15:49;;;;;;;15.65;11.70;;;5.80;99.90;;;;;;4991891;28;20929;-66
2021/01/21 01:18:14;;;;;;;15.00;11.60;;;5.70;99.90;;;;;;4992859;28;20168;-66
2021/01/21 01:20:40;;;;;;;13.40;10.83;;;5.70;99.90;;;;;;4983905;28;20656;-67
2021/01/21 01:23:05;;;;;;;14.23;11.30;;;5.70;99.90;;;;;;4993132;28;20335;-68
2021/01/21 01:25:33;;;;;;;14.13;11.40;;;5.70;99.90;;;;;;4991527;28;20180;-68
2021/01/21 01:27:58;;;;;;;15.23;11.85;;;5.80;99.90;;;;;;4992131;28;20518;-66
2021/01/21 01:30:24;;;;;;;12.37;11.03;;;5.80;99.90;;;;;;4990040;28;20190;-67
2021/01/21 01:32:50;;;;;;;16.90;12.37;;;5.70;99.90;;;;;;4990768;28;20194;-67
2021/01/21 01:35:16;;;;;;;16.10;12.70;;;5.80;99.90;;;;;;4992204;28;20192;-67
2021/01/21 01:37:42;;;;;;;13.73;12.20;;;5.70;1.00;;;;;;4992250;28;20188;-67
2021/01/21 01:40:09;;;;;;;13.93;12.23;;;5.70;1.00;;;;;;4989651;28;20267;-67
2021/01/21 01:42:34;;;;;;;16.17;12.77;;;5.60;1.00;;;;;;4990339;28;20208;-67
2021/01/21 01:45:00;;;;;;;17.20;12.67;;;5.60;1.00;;;;;;4991508;28;20202;-67
2021/01/21 01:47:26;;;;;;;14.17;12.33;;;5.60;1.00;;;;;;4992238;28;20762;-67
2021/01/21 01:49:55;;;;;;;13.55;12.20;;;5.60;1.00;;;;;;4992277;28;20187;-66
2021/01/21 01:52:21;;;;;;;14.35;12.60;;;5.50;1.00;;;;;;4990619;28;20199;-67
2021/01/21 01:54:48;;;;;;;17.50;13.00;;;5.50;1.00;;;;;;4992770;28;20643;-68
2021/01/21 01:57:14;;;;;;;16.13;13.02;;;5.50;1.00;;;;;;4992116;28;20819;-66
2021/01/21 01:59:41;;;;;;;14.30;12.23;;;5.50;1.00;;;;;;4983632;28;20658;-67
2021/01/21 02:02:06;;;;;;;15.07;13.18;;;5.50;1.00;;;;;;4992169;28;20940;-67
2021/01/21 02:04:32;;;;;;;15.00;12.17;;;5.50;1.00;;;;;;4990537;28;20192;-67
2021/01/21 02:06:57;;;;;;;16.60;12.63;;;5.50;1.00;;;;;;4991164;28;20188;-67
2021/01/21 02:09:23;;;;;;;16.57;12.47;;;5.50;1.00;;;;;;4982572;28;20269;-67
2021/01/21 02:12:11;;;;;;;16.00;12.33;;;5.50;1.00;;;;;;4988514;28;20208;-67
2021/01/21 02:14:45;;;;;;;15.75;12.40;;;5.40;1.00;;;;;;4991285;28;20207;-68
2021/01/21 02:17:19;;;;;;;14.93;11.70;;;5.40;1.00;;;;;;4990428;28;20331;-67
2021/01/21 02:20:23;;;;;;;14.32;11.43;;;5.50;1.00;;;;;;4980506;28;20202;-68
2021/01/21 02:23:26;;;;;;;13.45;12.05;;;5.50;1.00;;;;;;4990711;28;20243;-67
2021/01/21 02:26:02;;;;;;;18.98;11.88;;;5.50;99.90;;;;;;4991521;28;20737;-66
2021/01/21 02:28:45;;;;;;;14.25;10.80;;;5.60;99.90;;;;;;4990506;28;20746;-66
2021/01/21 02:31:52;;;;;;;14.02;11.68;;;5.60;99.90;;;;;;4991619;28;20187;-66
2021/01/21 02:34:22;;;;;;;13.18;11.13;;;5.70;99.90;;;;;;4994202;28;20200;-66
2021/01/21 02:36:54;;;;;;;14.60;11.85;;;5.80;99.90;;;;;;4991931;28;20183;-66
2021/01/21 02:39:21;;;;;;;13.40;11.50;;;5.80;99.90;;;;;;4989685;28;20210;-66
2021/01/21 02:41:47;;;;;;;13.98;11.13;;;5.80;99.90;;;;;;4990801;28;20314;-66
2021/01/21 02:44:13;;;;;;;12.93;11.20;;;5.80;99.90;;;;;;4990854;28;20678;-66
2021/01/21 02:46:39;;;;;;;13.60;11.20;;;5.80;99.90;;;;;;4990235;28;20545;-66
2021/01/21 02:49:05;;;;;;;14.15;11.40;;;5.80;99.90;;;;;;4985941;28;20248;-66
2021/01/21 02:51:46;;;;;;;13.93;11.33;;;5.80;99.90;;;;;;4984105;28;20627;-66
2021/01/21 02:54:27;;;;;;;12.90;10.95;;;5.80;99.90;;;;;;4990958;28;20188;-67
2021/01/21 02:57:02;;;;;;;15.18;12.50;;;5.80;99.90;;;;;;4990053;28;20200;-67
2021/01/21 02:59:33;;;;;;;14.85;12.73;;;5.80;99.90;;;;;;4977855;28;20195;-67
2021/01/21 03:02:02;;;;;;;15.55;12.35;;;5.80;99.90;;;;;;4990104;28;20271;-67
2021/01/21 03:04:29;;;;;;;14.63;12.45;;;5.80;99.90;;;;;;4991347;28;20599;-67
2021/01/21 03:06:58;;;;;;;16.95;12.70;;;5.80;99.90;;;;;;4989548;28;20184;-67
2021/01/21 03:09:24;;;;;;;17.20;13.38;;;5.80;99.90;;;;;;4990538;28;20644;-66
2021/01/21 03:11:50;;;;;;;15.43;12.88;;;5.70;99.90;;;;;;4987713;28;20191;-67
2021/01/21 03:14:15;;;;;;;17.40;13.70;;;5.70;1.00;;;;;;4991033;28;20184;-67
2021/01/21 03:16:41;;;;;;;17.90;13.50;;;5.70;1.00;;;;;;4990791;28;20230;-67
2021/01/21 03:19:07;;;;;;;16.00;12.90;;;5.60;1.00;;;;;;4989501;28;20952;-67
2021/01/21 03:21:32;;;;;;;15.63;11.80;;;5.60;1.00;;;;;;4988412;28;20217;-66
2021/01/21 03:23:58;;;;;;;17.33;12.70;;;5.60;1.00;;;;;;4989451;28;20183;-66
2021/01/21 03:26:24;;;;;;;15.60;13.00;;;5.60;1.00;;;;;;4989373;28;20183;-66
2021/01/21 03:28:49;;;;;;;15.63;12.03;;;5.60;1.00;;;;;;4978827;28;20227;-66
2021/01/21 03:31:15;;;;;;;20.80;12.40;;;5.60;99.90;;;;;;4990054;28;20338;-66
2021/01/21 03:33:40;;;;;;;14.67;12.57;;;5.70;99.90;;;;;;4989925;28;20184;-66
2021/01/21 03:36:06;;;;;;;16.97;13.17;;;5.70;99.90;;;;;;4988485;28;20208;-67
2021/01/21 03:38:32;;;;;;;17.03;13.07;;;5.60;1.00;;;;;;4990449;28;20208;-66
2021/01/21 03:40:57;;;;;;;16.23;12.73;;;5.60;99.90;;;;;;4989143;28;20690;-66
2021/01/21 03:43:23;;;;;;;16.93;12.70;;;5.70;1.00;;;;;;4988826;28;20334;-65
2021/01/21 03:45:48;;;;;;;17.97;13.33;;;5.60;1.00;;;;;;4989859;28;20192;-65
2021/01/21 03:48:14;;;;;;;20.53;14.67;;;5.60;1.00;;;;;;4990265;28;20184;-66
2021/01/21 03:50:40;;;;;;;20.13;14.30;;;5.50;1.00;;;;;;4987891;28;20194;-66
2021/01/21 03:53:05;;;;;;;16.87;13.40;;;5.50;1.00;;;;;;4988234;28;20646;-66
2021/01/21 03:55:31;;;;;;;18.07;13.93;;;5.40;1.00;;;;;;4989637;28;20188;-66
2021/01/21 03:57:57;;;;;;;17.23;13.80;;;5.40;1.00;;;;;;4988025;28;20199;-65
2021/01/21 04:00:22;;;;;;;15.93;13.40;;;5.40;1.00;;;;;;4987973;28;20203;-66
2021/01/21 04:02:48;;;;;;;18.63;13.70;;;5.40;1.00;;;;;;4989830;28;20583;-67
2021/01/21 04:05:14;;;;;;;16.27;12.40;;;5.40;1.00;;;;;;4988789;28;20602;-66
2021/01/21 04:07:39;;;;;;;16.53;12.97;;;5.40;1.00;;;;;;4988181;28;20237;-66
2021/01/21 04:10:05;;;;;;;18.33;13.77;;;5.40;1.00;;;;;;4987639;28;20651;-65
2021/01/21 04:12:31;;;;;;;20.65;14.40;;;5.40;1.00;;;;;;4989188;28;20200;-66
2021/01/21 04:14:57;;;;;;;20.47;13.50;;;5.30;1.00;;;;;;4988736;28;20751;-66
2021/01/21 04:17:22;;;;;;;18.73;14.47;;;5.30;1.00;;;;;;4987690;28;20215;-66
2021/01/21 04:19:48;;;;;;;19.33;14.97;;;5.20;1.00;;;;;;4988435;28;20199;-65
2021/01/21 04:22:13;;;;;;;17.67;14.87;;;5.20;1.00;;;;;;4988623;28;20207;-65
2021/01/21 04:24:39;;;;;;;18.43;14.90;;;5.10;1.00;;;;;;4987990;28;20750;-66
2021/01/21 04:27:05;;;;;;;17.30;14.40;;;5.00;1.00;;;;;;4989179;28;20184;-66
2021/01/21 04:29:30;;;;;;;19.70;14.20;;;5.00;1.00;;;;;;4987804;28;20192;-66
2021/01/21 04:31:56;;;;;;;18.70;14.13;;;4.90;1.00;;;;;;4987838;28;20180;-66
2021/01/21 04:34:21;;;;;;;19.53;13.63;;;4.90;1.00;;;;;;4987616;28;20219;-66
2021/01/21 04:36:47;;;;;;;17.57;13.93;;;4.90;1.00;;;;;;4986803;28;20239;-66
2021/01/21 04:39:12;;;;;;;17.40;14.00;;;4.90;1.00;;;;;;4988485;28;20766;-65
2021/01/21 04:41:38;;;;;;;16.97;13.87;;;4.90;1.00;;;;;;4989155;28;20233;-67
2021/01/21 04:44:04;;;;;;;16.97;14.03;;;4.90;1.00;;;;;;4986341;28;20234;-65
2021/01/21 04:46:30;;;;;;;18.47;14.87;;;4.90;1.00;;;;;;4989390;28;20179;-67
2021/01/21 04:48:56;;;;;;;19.60;14.53;;;4.90;1.00;;;;;;4987934;28;20179;-64
2021/01/21 04:51:23;;;;;;;20.75;14.50;;;4.90;1.00;;;;;;4978971;28;20431;-66
2021/01/21 04:53:53;;;;;;;14.65;12.90;;;4.90;1.00;;;;;;4988867;28;20190;-66
2021/01/21 04:56:25;;;;;;;20.33;15.70;;;4.90;1.00;;;;;;4988898;28;20192;-65
2021/01/21 04:58:57;;;;;;;16.90;13.60;;;5.00;1.00;;;;;;4984066;28;20270;-66
2021/01/21 05:01:23;;;;;;;19.38;14.35;;;5.00;1.00;;;;;;4987311;28;20188;-66
2021/01/21 05:03:50;;;;;;;17.23;13.43;;;4.90;1.00;;;;;;4988621;28;20175;-65
2021/01/21 05:06:16;;;;;;;18.58;14.18;;;4.90;1.00;;;;;;4987950;28;20187;-65
2021/01/21 05:08:42;;;;;;;16.93;12.63;;;5.00;1.00;;;;;;4987923;28;20180;-65
2021/01/21 05:11:08;;;;;;;18.25;13.73;;;5.00;1.00;;;;;;4978591;28;20210;-65
2021/01/21 05:13:33;;;;;;;14.40;12.70;;;5.00;1.00;;;;;;4984989;28;20207;-67
2021/01/21 05:15:59;;;;;;;20.23;14.00;;;5.00;1.00;;;;;;4988949;28;20202;-66
2021/01/21 05:18:29;;;;;;;17.03;14.20;;;4.90;1.00;;;;;;4981142;28;20230;-66
2021/01/21 05:20:54;;;;;;;16.10;13.18;;;5.00;1.00;;;;;;4978454;28;20624;-64
2021/01/21 05:23:23;;;;;;;16.40;13.50;;;5.00;1.00;;;;;;4981522;28;20211;-64
2021/01/21 05:25:50;;;;;;;18.35;14.13;;;5.10;1.00;;;;;;4978302;28;20187;-65
2021/01/21 05:28:16;;;;;;;18.35;13.30;;;5.10;1.00;;;;;;4979786;28;20188;-65
2021/01/21 05:30:42;;;;;;;18.98;14.38;;;5.10;1.00;;;;;;4979405;28;20211;-66
2021/01/21 05:33:08;;;;;;;20.43;14.47;;;5.10;1.00;;;;;;4977783;28;20380;-65
2021/01/21 05:35:34;;;;;;;20.60;14.87;;;5.10;1.00;;;;;;4978939;28;20274;-64
2021/01/21 05:38:01;;;;;;;22.00;16.80;;;4.90;1.00;;;;;;4979715;28;20285;-65
2021/01/21 05:40:30;;;;;;;21.13;15.25;;;4.80;1.00;;;;;;4986086;28;20236;-65
2021/01/21 05:42:57;;;;;;;19.58;15.20;;;4.70;1.00;;;;;;4988965;28;20219;-65
2021/01/21 05:45:24;;;;;;;20.20;15.38;;;4.60;1.00;;;;;;4990612;28;20267;-65
2021/01/21 05:48:00;;;;;;;19.80;14.73;;;4.60;1.00;;;;;;4991880;28;20299;-65
2021/01/21 05:50:27;;;;;;;20.02;14.30;;;4.60;1.00;;;;;;4992846;28;20187;-65
2021/01/21 05:52:57;;;;;;;20.20;14.68;;;4.60;1.00;;;;;;4991081;28;20695;-65
2021/01/21 05:55:24;;;;;;;19.08;14.75;;;4.50;1.00;;;;;;4992803;28;20649;-66
2021/01/21 05:57:50;;;;;;;19.85;15.48;;;4.50;1.00;;;;;;4989278;28;20314;-65
2021/01/21 06:00:20;;;;;;;19.50;15.07;;;4.50;1.00;;;;;;4989424;28;20199;-66
2021/01/21 06:02:49;;;;;;;21.30;15.68;;;4.50;1.00;;;;;;4991301;28;20262;-66
2021/01/21 06:05:21;;;;;;;21.00;16.23;;;4.50;1.00;;;;;;4992452;28;20191;-66
2021/01/21 06:07:48;;;;;;;21.45;15.75;;;4.50;1.00;;;;;;4983575;28;20227;-66
2021/01/21 06:10:15;;;;;;;19.67;14.98;;;4.60;1.00;;;;;;4992408;28;20195;-66
2021/01/21 06:12:47;;;;;;;18.80;15.55;;;4.60;1.00;;;;;;4990628;28;20210;-66
2021/01/21 06:15:14;;;;;;;20.35;15.20;;;4.60;1.00;;;;;;4991943;28;20239;-66
2021/01/21 06:17:41;;;;;;;18.60;16.40;;;4.60;1.00;;;;;;4991301;28;20184;-66
2021/01/21 06:20:08;;;;;;;23.55;17.15;;;4.60;1.00;;;;;;4990589;28;20180;-66
2021/01/21 06:22:35;;;;;;;21.02;15.85;;;4.70;1.00;;;;;;4985542;28;20257;-66
2021/01/21 06:25:04;;;;;;;21.17;15.70;;;4.70;1.00;;;;;;4985923;28;20218;-66
2021/01/21 06:27:32;;;;;;;23.23;17.88;;;4.80;1.00;;;;;;4985263;28;20180;-66
2021/01/21 06:30:00;;;;;;;21.27;15.70;;;4.80;1.00;;;;;;4991686;28;20176;-66
2021/01/21 06:32:33;;;;;;;24.00;21.40;;;4.80;1.00;;;;;;4991331;28;20235;-66
2021/01/21 06:35:05;;;;;;;20.42;16.13;;;4.80;1.00;;;;;;4989962;28;20539;-66
2021/01/21 06:37:36;;;;;;;21.15;16.75;;;4.80;1.00;;;;;;4989852;28;20650;-66
2021/01/21 06:40:09;;;;;;;21.73;16.05;;;4.80;1.00;;;;;;4990692;28;20224;-66
2021/01/21 06:42:38;;;;;;;22.85;17.33;;;4.70;1.00;;;;;;4991734;28;20279;-67
2021/01/21 06:45:05;;;;;;;23.38;17.10;;;4.70;1.00;;;;;;4988425;28;20330;-68
2021/01/21 06:47:32;;;;;;;24.48;17.80;;;4.70;1.00;;;;;;4992012;28;20968;-68
2021/01/21 06:50:00;;;;;;;21.13;15.98;;;4.70;1.00;;;;;;4989970;28;20188;-67
2021/01/21 06:52:28;;;;;;;23.95;17.25;;;4.60;1.00;;;;;;4989624;28;20672;-67
2021/01/21 06:54:55;;;;;;;25.67;17.77;;;4.60;1.00;;;;;;4987595;28;20251;-67
2021/01/21 06:57:36;;;;;;;25.73;18.55;;;4.50;1.00;;;;;;4989795;28;20218;-67
2021/01/21 07:00:05;;;;;;;25.40;17.48;;;4.50;1.00;;;;;;4990462;28;20192;-67
2021/01/21 07:02:51;;;;;;;22.63;17.60;;;4.50;1.00;;;;;;4987816;28;20216;-67
2021/01/21 07:05:22;;;;;;;24.00;17.48;;;4.50;1.00;;;;;;4987613;28;20192;-66
2021/01/21 07:07:57;;;;;;;23.08;17.15;;;4.40;1.00;;;;;;4989924;28;20191;-66
2021/01/21 07:10:39;;;;;;;23.95;17.35;;;4.40;1.00;;;;;;4989791;28;20175;-66
2021/01/21 07:13:12;;;;;;;24.48;17.15;;;4.40;1.00;;;;;;4988842;28;20654;-66
2021/01/21 07:15:58;;;;;;;24.08;17.48;;;4.40;1.00;;;;;;4987335;28;20180;-67
2021/01/21 07:18:35;;;;;;;23.60;17.48;;;4.50;1.00;;;;;;4982669;28;20299;-66
2021/01/21 07:21:06;;;;;;;24.88;17.33;;;4.40;1.00;;;;;;4987084;28;20191;-64
2021/01/21 07:23:49;;;;;;;21.92;16.42;;;4.40;1.00;;;;;;4987508;28;20212;-65
2021/01/21 07:26:25;;;;;;;25.98;16.98;;;4.40;1.00;;;;;;4988966;28;20638;-66
2021/01/21 07:29:12;;;;;;;24.50;18.52;;;4.40;1.00;;;;;;5004753;28;20188;-65
2021/01/21 07:31:56;;;;;;;25.08;18.17;;;4.40;1.00;;;;;;4978325;28;20191;-65
2021/01/21 07:34:29;;;;;;;24.13;16.52;;;4.40;1.00;;;;;;4989110;28;20227;-66
2021/01/21 07:37:06;;;;;;;23.13;16.17;;;4.40;1.00;;;;;;4989402;28;20549;-64
2021/01/21 07:39:47;;;;;;;23.27;17.30;;;4.50;1.00;;;;;;4989844;28;20653;-66
2021/01/21 07:42:13;;;;;;;26.70;17.27;;;4.50;1.00;;;;;;4987370;28;20199;-66
2021/01/21 07:44:52;;;;;;;23.37;16.10;;;4.50;1.00;;;;;;4990099;28;20182;-66
2021/01/21 07:47:26;;;;;;;23.52;16.98;;;4.50;1.00;;;;;;4989597;28;20179;-65
2021/01/21 07:50:32;;;;;;;22.80;16.80;;;4.60;1.00;;;;;;4983304;28;20191;-65
2021/01/21 07:53:00;;;;;;;21.80;16.10;;;4.60;1.00;;;;;;4989504;28;20180;-65
2021/01/21 07:55:35;;;;;;;23.48;16.77;;;4.60;1.00;;;;;;4989399;28;20188;-65
2021/01/21 07:58:39;;;;;;;22.35;16.05;;;4.60;1.00;;;;;;4988853;28;20243;-65
2021/01/21 08:01:09;;;;;;;22.95;17.13;;;4.60;1.00;;;;;;5001707;28;20207;-65
2021/01/21 08:03:43;;;;;;;24.98;17.92;;;4.60;1.00;;;;;;4979519;28;20255;-65
2021/01/21 08:06:19;;;;;;;21.75;16.10;;;4.60;1.00;;;;;;4987720;28;20246;-65
2021/01/21 08:08:47;;;;;;;23.10;16.35;;;4.70;1.00;;;;;;4987865;28;20238;-65
2021/01/21 08:11:20;;;;;;;24.13;16.20;;;4.80;1.00;;;;;;4989137;28;20183;-65
2021/01/21 08:13:47;;;;;;;23.13;15.93;;;4.80;1.00;;;;;;4989409;28;20203;-65
2021/01/21 08:16:17;;;;;;;20.73;15.93;;;4.80;1.00;;;;;;4987666;28;20555;-65
2021/01/21 08:18:45;;;;;;;22.33;16.08;;;4.90;1.00;;;;;;4985022;28;20231;-64
2021/01/21 08:21:24;;;;;;;21.58;15.77;;;4.90;1.00;;;;;;4986986;28;20300;-65
2021/01/21 08:24:09;;;;;;;21.63;15.02;;;5.00;1.00;;;;;;4987773;28;20188;-65
2021/01/21 08:26:36;;;;;;;20.40;15.73;;;5.00;1.00;;;;;;4988882;28;20255;-65
2021/01/21 08:29:09;;;;;;;20.58;15.93;;;5.10;1.00;;;;;;4988237;28;20188;-65
2021/01/21 08:31:48;;;;;;;20.60;15.80;;;5.10;1.00;;;;;;4986495;28;20519;-65
2021/01/21 08:34:24;;;;;;;27.00;17.02;;;5.20;1.00;;;;;;4988456;28;20668;-65
2021/01/21 08:37:00;;;;;;;21.33;14.68;;;5.20;1.00;;;;;;4988200;28;20175;-65
2021/01/21 08:39:26;;;;;;;20.67;14.52;;;5.30;1.00;;;;;;4980498;28;20184;-66
2021/01/21 08:41:52;;;;;;;23.40;16.33;;;5.30;1.00;;;;;;4989211;28;20238;-65
2021/01/21 08:44:19;;;;;;;22.17;16.37;;;5.40;1.00;;;;;;4987964;28;20177;-66
2021/01/21 08:47:05;;;;;;;22.48;16.08;;;5.40;1.00;;;;;;4988846;28;20954;-65
2021/01/21 08:49:34;;;;;;;24.63;16.83;;;5.40;1.00;;;;;;4992601;28;20200;-65
2021/01/21 08:52:07;;;;;;;22.35;16.38;;;5.40;1.00;;;;;;4988605;28;20179;-67
2021/01/21 08:54:33;;;;;;;20.90;16.00;;;5.50;1.00;;;;;;4989249;28;20214;-66
2021/01/21 08:57:14;;;;;;;20.07;15.13;;;5.60;1.00;;;;;;4988443;28;20630;-66
2021/01/21 08:59:40;;;;;;;20.98;15.45;;;5.60;1.00;;;;;;4987560;28;20218;-66
2021/01/21 09:02:06;;;;;;;18.85;14.57;;;5.70;1.00;;;;;;4988499;28;20998;-65
2021/01/21 09:04:35;;;;;;;20.87;15.10;;;5.70;1.00;;;;;;4986505;28;20180;-65
2021/01/21 09:07:01;;;;;;;20.50;14.70;;;5.80;99.90;;;;;;4972095;28;20187;-66
2021/01/21 09:09:34;;;;;;;19.60;15.27;;;5.80;99.90;;;;;;4988896;28;20178;-66
2021/01/21 09:12:20;;;;;;;19.92;14.38;;;5.80;99.90;;;;;;4982482;28;20731;-66
2021/01/21 09:15:03;;;;;;;17.83;15.07;;;5.70;1.00;;;;;;4969928;28;20177;-66
2021/01/21 09:17:30;;;;;;;19.92;14.48;;;5.70;1.00;;;;;;4984714;28;20176;-66
2021/01/21 09:19:57;;;;;;;20.95;14.98;;;5.60;1.00;;;;;;4991260;28;20187;-67
2021/01/21 09:22:25;;;;;;;20.25;14.20;;;5.70;1.00;;;;;;4990206;28;20345;-67
2021/01/21 09:25:03;;;;;;;17.30;14.15;;;5.80;1.00;;;;;;4992551;28;20267;-66
2021/01/21 09:27:30;;;;;;;19.95;14.88;;;5.80;99.90;;;;;;4992012;28;20172;-66
2021/01/21 09:30:01;;;;;;;19.10;14.75;;;5.80;99.90;;;;;;5021188;28;20251;-68
2021/01/21 09:32:36;;;;;;;18.75;13.88;;;5.90;99.90;;;;;;4992435;28;20180;-68
2021/01/21 09:35:09;;;;;;;15.90;13.13;;;5.90;99.90;;;;;;4991639;28;20184;-67
2021/01/21 09:37:37;;;;;;;17.20;13.27;;;6.00;99.90;;;;;;4991993;28;20189;-67
2021/01/21 09:40:05;;;;;;;23.88;14.93;;;6.10;99.90;;;;;;4991692;28;20234;-67
2021/01/21 09:42:30;;;;;;;19.35;14.20;;;6.20;1.00;;;;;;4990990;28;20204;-66
2021/01/21 09:44:56;;;;;;;27.23;15.00;;;6.30;4.90;;;;;;4989881;28;20238;-66
2021/01/21 09:47:22;;;;;;;18.20;14.27;;;6.30;1.00;;;;;;4991760;28;20196;-67
2021/01/21 09:49:48;;;;;;;16.90;13.80;;;6.30;99.90;;;;;;4988579;28;20479;-66
2021/01/21 09:52:14;;;;;;;14.23;11.77;;;6.30;99.90;;;;;;4974867;28;21138;-67
2021/01/21 09:54:40;;;;;;;18.80;14.03;;;6.40;1.00;;;;;;4972849;28;20268;-67
2021/01/21 09:57:06;;;;;;;19.10;14.60;;;6.40;1.00;;;;;;4978683;28;20424;-66
2021/01/21 09:59:31;;;;;;;19.92;14.55;;;6.40;1.00;;;;;;4991667;28;20233;-64
2021/01/21 10:01:57;;;;;;;19.63;14.23;;;6.40;25.60;;;;;;4992169;28;20200;-70
2021/01/21 10:04:23;;;;;;;20.00;14.83;;;6.40;23.90;;;;;;4991635;28;20189;-69
2021/01/21 10:06:48;;;;;;;19.40;15.20;;;6.40;32.90;;;;;;5023426;28;20184;-69
2021/01/21 10:09:14;;;;;;;18.27;13.97;;;6.30;99.90;;;;;;4990471;28;20597;-69
2021/01/21 10:11:40;;;;;;;22.67;16.70;;;6.30;99.90;;;;;;4991427;28;20447;-70
2021/01/21 10:14:06;;;;;;;21.83;14.30;;;6.40;1.00;;;;;;4981033;28;20188;-70
2021/01/21 10:16:32;;;;;;;20.83;13.90;;;6.40;1.00;;;;;;4990469;28;20247;-69
2021/01/21 10:18:58;;;;;;;17.17;13.65;;;6.40;1.00;;;;;;4991139;28;20285;-69
2021/01/21 10:21:24;;;;;;;18.50;13.93;;;6.40;1.00;;;;;;4989692;28;20284;-70
2021/01/21 10:23:53;;;;;;;18.40;13.65;;;6.40;99.90;;;;;;4990021;28;20173;-70
2021/01/21 10:26:19;;;;;;;17.75;13.77;;;6.40;92.90;;;;;;4991383;28;20268;-70
2021/01/21 10:28:46;;;;;;;16.38;13.23;;;6.40;1.00;;;;;;4990368;28;20498;-69
2021/01/21 10:31:11;;;;;;;16.88;12.90;;;6.50;1.00;;;;;;4987871;28;20187;-70
2021/01/21 10:33:37;;;;;;;19.37;14.37;;;6.50;1.00;;;;;;4991131;28;20802;-68
2021/01/21 10:36:04;;;;;;;16.93;13.17;;;6.40;99.90;;;;;;4991193;28;20190;-68
2021/01/21 10:38:30;;;;;;;19.75;14.00;;;6.50;1.00;;;;;;4986540;28;20208;-69
2021/01/21 10:40:56;;;;;;;17.42;13.93;;;6.50;99.90;;;;;;4990715;28;20232;-69
2021/01/21 10:43:21;;;;;;;17.77;14.20;;;6.60;1.00;;;;;;4989087;28;20213;-69
2021/01/21 10:45:47;;;;;;;17.33;14.30;;;6.70;58.60;;;;;;4991098;28;20589;-70
2021/01/21 10:48:13;;;;;;;23.50;14.57;;;6.80;99.90;;;;;;4990146;28;20212;-69
2021/01/21 10:50:38;;;;;;;18.27;14.00;;;6.70;99.90;;;;;;4989954;28;20178;-69
2021/01/21 10:53:04;;;;;;;16.90;13.47;;;6.80;1.00;;;;;;4991099;28;20216;-69
2021/01/21 10:55:31;;;;;;;20.83;15.93;;;7.00;1.00;;;;;;4989219;28;20182;-69
2021/01/21 10:57:56;;;;;;;17.33;13.40;;;7.00;1.00;;;;;;4987958;28;20232;-69
2021/01/21 11:00:22;;;;;;;18.10;14.57;;;7.10;1.00;;;;;;4989666;28;20551;-69
2021/01/21 11:02:48;;;;;;;17.57;13.73;;;7.20;1.00;;;;;;4990022;28;20286;-69
2021/01/21 11:05:15;;;;;;;16.60;13.20;;;7.20;99.90;;;;;;4990792;28;20183;-69
2021/01/21 11:07:40;;;;;;;17.00;13.20;;;7.30;1.00;;;;;;4989608;28;20170;-68
2021/01/21 11:10:07;;;;;;;16.40;12.27;;;7.30;1.00;;;;;;4981376;28;20533;-69
2021/01/21 11:12:33;;;;;;;15.93;12.60;;;7.40;99.90;;;;;;4984031;28;20817;-69
2021/01/21 11:14:58;;;;;;;15.40;12.30;;;7.50;1.00;;;;;;4990468;28;20425;-68
2021/01/21 11:17:25;;;;;;;14.83;12.80;;;7.70;1.00;;;;;;4990362;28;20180;-69
2021/01/21 11:19:50;;;;;;;16.87;12.37;;;7.80;91.20;;;;;;4987925;28;20238;-67
2021/01/21 11:22:16;;;;;;;13.03;11.20;;;8.10;1.00;;;;;;4988179;28;20473;-68
2021/01/21 11:24:42;;;;;;;14.27;11.97;;;8.90;99.90;;;;;;4988957;28;20191;-68
2021/01/21 11:27:07;;;;;;;12.60;11.20;;;9.90;1.00;;;;;;4988723;28;20215;-68
2021/01/21 11:29:33;;;;;;;13.97;12.47;;;10.90;1.00;;;;;;4989022;28;20215;-69
2021/01/21 11:31:59;;;;;;;12.57;11.37;;;11.30;1.00;;;;;;4990185;28;20376;-68
2021/01/21 11:34:25;;;;;;;14.33;11.97;;;11.80;99.90;;;;;;4988952;28;20595;-67
2021/01/21 11:36:51;;;;;;;13.23;11.83;;;12.60;99.90;;;;;;4989471;28;20235;-67
2021/01/21 11:39:17;;;;;;;14.83;13.20;;;12.70;99.90;;;;;;4988287;28;20431;-68
2021/01/21 11:41:42;;;;;;;13.70;12.20;;;12.30;99.90;;;;;;4987872;28;20484;-68
2021/01/21 11:44:08;;;;;;;14.30;11.80;;;11.60;99.90;;;;;;4989051;28;21244;-69
2021/01/21 11:46:34;;;;;;;14.97;12.30;;;11.20;99.90;;;;;;4990267;28;20274;-68
2021/01/21 11:49:00;;;;;;;15.07;12.53;;;10.80;99.90;;;;;;4988829;28;20264;-68
2021/01/21 11:51:25;;;;;;;13.90;12.33;;;10.60;99.90;;;;;;4988789;28;20419;-69
2021/01/21 11:53:51;;;;;;;13.90;11.43;;;10.40;1.00;;;;;;4984107;28;20199;-68
2021/01/21 11:56:17;;;;;;;15.10;11.30;;;10.30;1.00;;;;;;4983607;28;20287;-68
2021/01/21 11:58:43;;;;;;;14.00;11.50;;;10.60;1.00;;;;;;4987251;28;20643;-68
2021/01/21 12:01:08;;;;;;;14.30;11.20;;;10.60;1.00;;;;;;4989805;28;20203;-69
2021/01/21 12:03:34;;;;;;;13.53;11.43;;;10.90;99.90;;;;;;4989175;28;20466;-68
2021/01/21 12:06:01;;;;;;;16.33;11.47;;;11.20;99.90;;;;;;4988357;28;20192;-68
2021/01/21 12:08:27;;;;;;;13.40;11.70;;;12.00;99.90;;;;;;4989292;28;20248;-68
2021/01/21 12:10:53;;;;;;;13.70;11.73;;;12.90;99.90;;;;;;4986664;28;20761;-68
2021/01/21 12:13:18;;;;;;;13.30;11.70;;;13.40;99.90;;;;;;4980860;28;20451;-68
2021/01/21 12:15:44;;;;;;;14.17;12.67;;;13.90;99.90;;;;;;4987951;28;20200;-69
2021/01/21 12:18:10;;;;;;;14.00;12.50;;;13.90;99.90;;;;;;4986543;28;20235;-70
2021/01/21 12:20:36;;;;;;;13.83;12.43;;;14.00;99.90;;;;;;4987601;28;20219;-70
2021/01/21 12:23:02;;;;;;;14.90;13.30;;;14.20;99.90;;;;;;4988716;28;20455;-69
2021/01/21 12:25:28;;;;;;;13.77;12.30;;;14.20;99.90;;;;;;4989185;28;21026;-69
2021/01/21 12:27:54;;;;;;;15.97;13.63;;;14.10;99.90;;;;;;4988158;28;20466;-69
2021/01/21 12:30:20;;;;;;;16.27;13.17;;;14.40;99.90;;;;;;4988870;28;20173;-69
2021/01/21 12:32:45;;;;;;;14.40;12.90;;;14.60;99.90;;;;;;4988780;28;20185;-69
2021/01/21 12:35:12;;;;;;;14.47;12.70;;;14.20;99.90;;;;;;4988871;28;20429;-69
2021/01/21 12:37:38;;;;;;;15.07;13.20;;;14.60;99.90;;;;;;4988525;28;20305;-70
2021/01/21 12:40:05;;;;;;;15.40;13.70;;;14.40;99.90;;;;;;4988305;28;20556;-70
2021/01/21 12:42:31;;;;;;;15.07;13.43;;;14.40;99.90;;;;;;4988629;28;20216;-70
2021/01/21 12:44:56;;;;;;;15.90;14.20;;;14.30;99.90;;;;;;4988358;28;20496;-68
2021/01/21 12:47:22;;;;;;;16.03;14.33;;;14.70;99.90;;;;;;4987943;28;20189;-66
2021/01/21 12:49:47;;;;;;;16.60;14.17;;;15.00;99.90;;;;;;4987577;28;20272;-68